Time,TemperatureF,DewpointF,PressureIn,WindDirection,WindDirectionDegrees,WindSpeedMPH,WindSpeedGustMPH,Humidity,HourlyPrecipIn,Conditions,Clouds,dailyrainin,SoftwareType,DateUTC
2013-06-20 00:01:00,46.1,-7.5,29.61,NNW,338,0.2,1.1,1,0.04,,,0.00,WUHU216HW,2013-06-20 06:01:00,
2013-06-20 00:06:00,45.9,-7.6,29.61,NNW,338,0.0,1.1,1,0.04,,,0.00,WUHU216HW,2013-06-20 06:06:00,
2013-06-20 00:11:00,45.9,-7.6,29.60,NNW,338,0.0,1.1,1,0.04,,,0.00,WUHU216HW,2013-06-20 06:11:00,
2013-06-20 00:16:00,45.9,-7.6,29.59,North,0,0.0,0.2,1,0.04,,,0.00,WUHU216HW,2013-06-20 06:16:00,
2013-06-20 00:21:00,45.7,-7.7,29.58,NE,45,0.4,0.4,1,0.03,,,0.00,WUHU216HW,2013-06-20 06:21:00,
2013-06-20 00:26:00,45.7,-7.7,29.58,North,0,0.0,0.4,1,0.02,,,0.00,WUHU216HW,2013-06-20 06:26:00,
2013-06-20 00:31:00,45.7,-7.7,29.57,South,180,0.2,0.4,1,0.02,,,0.00,WUHU216HW,2013-06-20 06:31:00,
2013-06-20 00:36:00,45.7,-7.7,29.57,South,180,0.0,0.2,1,0.02,,,0.00,WUHU216HW,2013-06-20 06:36:00,
2013-06-20 00:41:00,45.7,-7.7,29.57,SW,225,0.4,0.4,1,0.02,,,0.00,WUHU216HW,2013-06-20 06:41:00,
2013-06-20 00:46:00,45.7,-7.7,29.58,NNE,23,0.0,0.4,1,0.01,,,0.00,WUHU216HW,2013-06-20 06:46:00,
2013-06-20 00:51:00,45.7,-7.7,29.57,WSW,248,0.9,1.1,1,0.01,,,0.00,WUHU216HW,2013-06-20 06:51:00,
2013-06-20 00:56:00,45.7,-7.7,29.57,WNW,293,0.0,1.1,1,0.00,,,0.00,WUHU216HW,2013-06-20 06:56:00,
2013-06-20 01:01:00,45.5,-7.9,29.56,North,0,0.0,0.4,1,0.00,,,0.00,WUHU216HW,2013-06-20 07:01:00,
2013-06-20 01:06:00,45.5,-7.9,29.56,WSW,248,0.0,0.7,1,0.01,,,0.01,WUHU216HW,2013-06-20 07:06:00,
2013-06-20 01:11:00,45.5,-7.9,29.56,NNW,338,0.0,0.7,1,0.02,,,0.02,WUHU216HW,2013-06-20 07:11:00,
2013-06-20 01:16:00,45.7,-7.7,29.56,WSW,248,0.2,0.7,1,0.02,,,0.02,WUHU216HW,2013-06-20 07:16:00,
2013-06-20 01:21:00,45.5,-7.9,29.56,SW,225,0.0,0.7,1,0.03,,,0.02,WUHU216HW,2013-06-20 07:21:00,
2013-06-20 01:26:00,45.5,-7.9,29.56,WSW,248,0.0,0.9,1,0.04,,,0.04,WUHU216HW,2013-06-20 07:26:00,
2013-06-20 01:31:00,45.5,-7.9,29.56,WSW,248,0.0,1.3,1,0.05,,,0.04,WUHU216HW,2013-06-20 07:31:00,
2013-06-20 01:36:00,45.5,-7.9,29.56,WSW,248,0.0,1.3,1,0.06,,,0.06,WUHU216HW,2013-06-20 07:36:00,
2013-06-20 01:41:00,45.7,-7.7,29.56,SW,225,0.0,1.1,1,0.06,,,0.06,WUHU216HW,2013-06-20 07:41:00,
2013-06-20 01:46:00,45.5,-7.9,29.56,SW,225,0.0,1.1,1,0.07,,,0.07,WUHU216HW,2013-06-20 07:46:00,
2013-06-20 01:51:00,45.5,-7.9,29.56,North,0,0.4,0.4,1,0.08,,,0.08,WUHU216HW,2013-06-20 07:51:00,
2013-06-20 01:56:00,45.5,-7.9,29.55,SW,225,0.0,2.5,1,0.08,,,0.08,WUHU216HW,2013-06-20 07:56:00,
2013-06-20 02:01:00,45.7,-7.7,29.55,NE,45,0.2,2.5,1,0.07,,,0.08,WUHU216HW,2013-06-20 08:01:00,
2013-06-20 02:06:00,45.5,-7.9,29.54,NE,45,0.2,1.3,1,0.07,,,0.08,WUHU216HW,2013-06-20 08:06:00,
2013-06-20 02:11:00,45.5,-7.9,29.54,ESE,113,0.4,0.9,1,0.06,,,0.08,WUHU216HW,2013-06-20 08:11:00,
2013-06-20 02:16:00,45.5,-7.9,29.55,SSW,203,0.4,1.6,1,0.06,,,0.08,WUHU216HW,2013-06-20 08:16:00,
2013-06-20 02:21:00,45.5,-7.9,29.56,North,0,1.1,1.6,1,0.04,,,0.08,WUHU216HW,2013-06-20 08:21:00,
2013-06-20 02:26:00,45.5,-7.9,29.56,North,0,0.0,1.3,1,0.04,,,0.08,WUHU216HW,2013-06-20 08:26:00,
2013-06-20 02:31:00,45.5,-7.9,29.56,North,0,0.0,0.4,1,0.03,,,0.08,WUHU216HW,2013-06-20 08:31:00,
2013-06-20 02:36:00,45.5,-7.9,29.55,South,180,1.1,1.8,1,0.03,,,0.09,WUHU216HW,2013-06-20 08:36:00,
2013-06-20 02:41:00,45.5,-7.9,29.55,West,270,0.0,1.8,1,0.03,,,0.10,WUHU216HW,2013-06-20 08:41:00,
2013-06-20 02:46:00,45.5,-7.9,29.55,WSW,248,0.2,4.7,1,0.03,,,0.10,WUHU216HW,2013-06-20 08:46:00,
2013-06-20 02:51:00,45.5,-7.9,29.55,NW,315,0.0,4.7,1,0.03,,,0.10,WUHU216HW,2013-06-20 08:51:00,
2013-06-20 02:56:00,45.4,-8.1,29.54,SSW,203,0.0,1.8,1,0.04,,,0.12,WUHU216HW,2013-06-20 08:56:00,
2013-06-20 03:01:00,45.4,-8.1,29.54,SSW,203,0.4,1.8,1,0.04,,,0.12,WUHU216HW,2013-06-20 09:01:00,
2013-06-20 03:06:00,45.4,-8.1,29.55,SE,135,0.4,1.1,1,0.06,,,0.13,WUHU216HW,2013-06-20 09:06:00,
2013-06-20 03:11:00,45.4,-8.1,29.55,North,0,0.7,0.7,1,0.06,,,0.14,WUHU216HW,2013-06-20 09:11:00,
2013-06-20 03:16:00,45.4,-8.1,29.55,North,0,0.0,0.7,1,0.07,,,0.14,WUHU216HW,2013-06-20 09:16:00,
2013-06-20 03:21:00,45.2,-8.2,29.55,North,0,0.0,0.7,1,0.07,,,0.15,WUHU216HW,2013-06-20 09:21:00,
2013-06-20 03:27:00,45.2,-8.2,29.55,North,0,0.0,0.4,1,0.07,,,0.15,WUHU216HW,2013-06-20 09:27:00,
2013-06-20 03:32:00,45.2,-8.2,29.54,North,0,0.7,0.7,1,0.08,,,0.16,WUHU216HW,2013-06-20 09:32:00,
2013-06-20 03:37:00,45.2,-8.2,29.54,East,90,0.4,0.9,1,0.07,,,0.16,WUHU216HW,2013-06-20 09:37:00,
2013-06-20 03:42:00,45.2,-8.2,29.53,South,180,0.4,2.9,1,0.07,,,0.17,WUHU216HW,2013-06-20 09:42:00,
2013-06-20 03:47:00,45.2,-8.2,29.53,North,0,2.5,2.9,1,0.08,,,0.17,WUHU216HW,2013-06-20 09:47:00,
2013-06-20 03:52:00,45.2,-8.2,29.54,NNE,23,0.9,2.5,1,0.07,,,0.18,WUHU216HW,2013-06-20 09:52:00,
2013-06-20 03:57:00,45.2,-8.2,29.54,NNE,23,0.4,2.0,1,0.07,,,0.19,WUHU216HW,2013-06-20 09:57:00,
2013-06-20 04:02:00,45.2,-8.2,29.53,NNE,23,0.4,0.7,1,0.07,,,0.19,WUHU216HW,2013-06-20 10:02:00,
2013-06-20 04:07:00,45.2,-8.2,29.53,NE,45,1.3,1.3,1,0.06,,,0.20,WUHU216HW,2013-06-20 10:07:00,
2013-06-20 04:12:00,45.0,-8.4,29.53,NE,45,0.4,1.3,1,0.07,,,0.21,WUHU216HW,2013-06-20 10:12:00,
2013-06-20 04:17:00,45.0,-8.4,29.53,North,0,2.0,2.0,1,0.07,,,0.22,WUHU216HW,2013-06-20 10:17:00,
2013-06-20 04:22:00,44.8,-8.4,29.53,ESE,113,1.8,2.0,1,0.08,,,0.23,WUHU216HW,2013-06-20 10:22:00,
2013-06-20 04:27:00,44.6,-8.6,29.52,North,0,1.1,2.2,1,0.09,,,0.24,WUHU216HW,2013-06-20 10:27:00,
2013-06-20 04:32:00,44.6,-8.6,29.53,NE,45,5.4,5.4,1,0.09,,,0.25,WUHU216HW,2013-06-20 10:32:00,
2013-06-20 04:37:00,44.5,-8.8,29.53,NNE,23,0.0,5.4,1,0.09,,,0.26,WUHU216HW,2013-06-20 10:37:00,
2013-06-20 04:42:00,44.3,-8.9,29.53,SW,225,0.0,2.0,1,0.09,,,0.26,WUHU216HW,2013-06-20 10:42:00,
2013-06-20 04:47:00,44.3,-8.9,29.53,NE,45,3.4,3.4,1,0.09,,,0.27,WUHU216HW,2013-06-20 10:47:00,
2013-06-20 04:52:00,44.3,-8.9,29.52,NNW,338,1.6,3.4,1,0.10,,,0.28,WUHU216HW,2013-06-20 10:52:00,
2013-06-20 04:57:00,44.1,-9.1,29.53,NE,45,0.9,3.4,1,0.09,,,0.28,WUHU216HW,2013-06-20 10:57:00,
2013-06-20 05:02:00,43.9,-9.2,29.53,ESE,113,0.0,2.0,1,0.08,,,0.28,WUHU216HW,2013-06-20 11:02:00,
2013-06-20 05:07:00,43.9,-9.2,29.53,NNE,23,1.6,2.9,1,0.08,,,0.30,WUHU216HW,2013-06-20 11:07:00,
2013-06-20 05:12:00,43.9,-9.2,29.53,North,0,0.0,3.4,1,0.07,,,0.30,WUHU216HW,2013-06-20 11:12:00,
2013-06-20 05:17:00,43.7,-9.4,29.53,NNW,338,1.1,3.4,1,0.06,,,0.30,WUHU216HW,2013-06-20 11:17:00,
2013-06-20 05:22:00,43.9,-9.2,29.53,NNE,23,0.0,2.9,1,0.06,,,0.30,WUHU216HW,2013-06-20 11:22:00,
2013-06-20 05:27:00,43.7,-9.4,29.53,NE,45,2.0,2.0,1,0.06,,,0.30,WUHU216HW,2013-06-20 11:27:00,
2013-06-20 05:32:00,43.6,-9.5,29.54,NNE,23,0.2,2.0,1,0.06,,,0.32,WUHU216HW,2013-06-20 11:32:00,
2013-06-20 05:37:00,43.6,-9.5,29.54,North,0,1.1,1.3,1,0.06,,,0.32,WUHU216HW,2013-06-20 11:37:00,
2013-06-20 05:42:00,43.6,-9.5,29.54,North,0,1.1,1.1,1,0.08,,,0.32,WUHU216HW,2013-06-20 11:42:00,
2013-06-20 05:47:00,43.4,-9.6,29.54,NNE,23,0.7,3.4,1,0.07,,,0.34,WUHU216HW,2013-06-20 11:47:00,
2013-06-20 05:52:00,43.4,-9.6,29.54,NE,45,0.7,3.4,1,0.07,,,0.35,WUHU216HW,2013-06-20 11:52:00,
2013-06-20 05:57:00,43.4,-9.6,29.54,East,90,0.0,2.0,1,0.08,,,0.37,WUHU216HW,2013-06-20 11:57:00,
2013-06-20 06:02:00,43.2,-9.8,29.55,North,0,0.0,4.7,1,0.09,,,0.37,WUHU216HW,2013-06-20 12:02:00,
2013-06-20 06:07:00,43.2,-9.8,29.55,North,0,1.3,4.7,1,0.08,,,0.37,WUHU216HW,2013-06-20 12:07:00,
2013-06-20 06:12:00,43.0,-9.9,29.56,North,0,1.6,2.2,1,0.09,,,0.39,WUHU216HW,2013-06-20 12:12:00,
2013-06-20 06:17:00,42.8,-10.1,29.56,North,0,1.6,2.2,1,0.09,,,0.39,WUHU216HW,2013-06-20 12:17:00,
2013-06-20 06:22:00,42.8,-10.1,29.56,North,0,0.7,2.0,1,0.09,,,0.39,WUHU216HW,2013-06-20 12:22:00,
2013-06-20 06:27:00,42.8,-10.1,29.56,NNE,23,0.2,1.3,1,0.10,,,0.41,WUHU216HW,2013-06-20 12:27:00,
2013-06-20 06:32:00,42.8,-10.1,29.56,WNW,293,0.0,0.4,1,0.10,,,0.42,WUHU216HW,2013-06-20 12:32:00,
2013-06-20 06:37:00,42.7,-10.2,29.56,North,0,2.7,2.7,1,0.10,,,0.43,WUHU216HW,2013-06-20 12:37:00,
2013-06-20 06:42:00,42.5,-10.3,29.56,NE,45,1.1,2.7,1,0.09,,,0.44,WUHU216HW,2013-06-20 12:42:00,
2013-06-20 06:47:00,42.5,-10.3,29.56,NNE,23,2.0,2.0,1,0.09,,,0.45,WUHU216HW,2013-06-20 12:47:00,
2013-06-20 06:52:00,42.5,-10.3,29.56,NNE,23,0.2,2.0,1,0.10,,,0.46,WUHU216HW,2013-06-20 12:52:00,
2013-06-20 06:57:00,42.5,-10.3,29.57,NNE,23,1.1,1.3,1,0.11,,,0.48,WUHU216HW,2013-06-20 12:57:00,
2013-06-20 07:02:00,42.5,-10.3,29.57,NNE,23,0.4,2.0,1,0.10,,,0.48,WUHU216HW,2013-06-20 13:02:00,
2013-06-20 07:07:00,42.5,-10.3,29.57,North,0,1.1,2.5,1,0.11,,,0.49,WUHU216HW,2013-06-20 13:07:00,
2013-06-20 07:12:00,42.3,-10.4,29.57,SSE,158,0.4,2.5,1,0.11,,,0.50,WUHU216HW,2013-06-20 13:12:00,
2013-06-20 07:17:00,42.3,-10.4,29.57,East,90,0.0,1.8,1,0.10,,,0.50,WUHU216HW,2013-06-20 13:17:00,
2013-06-20 07:22:00,42.1,-10.6,29.57,SW,225,0.2,2.7,1,0.10,,,0.51,WUHU216HW,2013-06-20 13:22:00,
2013-06-20 07:27:00,42.1,-10.6,29.57,ENE,68,1.3,2.7,1,0.11,,,0.51,WUHU216HW,2013-06-20 13:27:00,
2013-06-20 07:32:00,42.1,-10.6,29.57,NNE,23,0.2,1.6,1,0.10,,,0.52,WUHU216HW,2013-06-20 13:32:00,
2013-06-20 07:37:00,41.9,-10.7,29.57,South,180,0.2,1.3,1,0.10,,,0.53,WUHU216HW,2013-06-20 13:37:00,
2013-06-20 07:42:00,41.9,-10.7,29.57,North,0,1.1,2.5,1,0.08,,,0.53,WUHU216HW,2013-06-20 13:42:00,
2013-06-20 07:47:00,41.9,-10.7,29.58,North,0,0.7,2.5,1,0.08,,,0.54,WUHU216HW,2013-06-20 13:47:00,
2013-06-20 07:52:00,41.9,-10.7,29.57,NNE,23,1.8,2.0,1,0.07,,,0.54,WUHU216HW,2013-06-20 13:52:00,
2013-06-20 07:57:00,41.9,-10.7,29.58,ESE,113,1.1,3.4,1,0.07,,,0.55,WUHU216HW,2013-06-20 13:57:00,
2013-06-20 08:02:00,41.9,-10.7,29.57,SW,225,0.9,3.4,1,0.06,,,0.55,WUHU216HW,2013-06-20 14:02:00,
2013-06-20 08:07:00,42.1,-10.6,29.57,North,0,1.1,2.2,1,0.06,,,0.55,WUHU216HW,2013-06-20 14:07:00,
2013-06-20 08:12:00,42.1,-10.6,29.57,NNE,23,0.0,1.6,1,0.06,,,0.56,WUHU216HW,2013-06-20 14:12:00,
2013-06-20 08:17:00,42.1,-10.6,29.57,ESE,113,1.1,2.2,1,0.05,,,0.56,WUHU216HW,2013-06-20 14:17:00,
2013-06-20 08:22:00,42.1,-10.6,29.58,NNE,23,2.2,2.2,1,0.06,,,0.57,WUHU216HW,2013-06-20 14:22:00,
2013-06-20 08:27:00,42.1,-10.6,29.58,ESE,113,0.2,2.9,1,0.05,,,0.57,WUHU216HW,2013-06-20 14:27:00,
2013-06-20 08:32:00,42.1,-10.6,29.57,North,0,2.5,2.9,1,0.06,,,0.57,WUHU216HW,2013-06-20 14:32:00,
2013-06-20 08:37:00,42.1,-10.6,29.58,NNE,23,4.0,5.4,1,0.05,,,0.58,WUHU216HW,2013-06-20 14:37:00,
2013-06-20 08:42:00,42.1,-10.6,29.58,North,0,0.7,5.4,1,0.04,,,0.58,WUHU216HW,2013-06-20 14:42:00,
2013-06-20 08:47:00,42.1,-10.6,29.58,NE,45,0.0,3.4,1,0.04,,,0.58,WUHU216HW,2013-06-20 14:47:00,
2013-06-20 08:52:00,42.3,-10.4,29.58,NNE,23,2.9,2.9,1,0.05,,,0.59,WUHU216HW,2013-06-20 14:52:00,
2013-06-20 08:57:00,42.3,-10.4,29.58,NE,45,0.2,2.9,1,0.04,,,0.59,WUHU216HW,2013-06-20 14:57:00,
2013-06-20 09:02:00,42.1,-10.6,29.58,North,0,0.4,2.7,1,0.04,,,0.59,WUHU216HW,2013-06-20 15:02:00,
2013-06-20 09:07:00,42.1,-10.6,29.59,ENE,68,0.0,3.6,1,0.04,,,0.59,WUHU216HW,2013-06-20 15:07:00,
2013-06-20 09:12:00,42.1,-10.6,29.59,NNE,23,1.1,3.6,1,0.04,,,0.60,WUHU216HW,2013-06-20 15:12:00,
2013-06-20 09:17:00,42.1,-10.6,29.59,ENE,68,1.3,2.5,1,0.04,,,0.60,WUHU216HW,2013-06-20 15:17:00,
2013-06-20 09:22:00,42.1,-10.6,29.59,NE,45,1.1,1.8,1,0.04,,,0.61,WUHU216HW,2013-06-20 15:22:00,
2013-06-20 09:27:00,42.1,-10.6,29.60,NNE,23,0.0,1.8,1,0.04,,,0.61,WUHU216HW,2013-06-20 15:27:00,
2013-06-20 09:32:00,42.3,-10.4,29.60,NE,45,0.2,1.3,1,0.04,,,0.61,WUHU216HW,2013-06-20 15:32:00,
2013-06-20 09:37:00,42.1,-10.6,29.60,SSW,203,1.8,1.8,1,0.04,,,0.62,WUHU216HW,2013-06-20 15:37:00,
2013-06-20 09:42:00,42.1,-10.6,29.60,East,90,0.2,2.2,2,0.04,,,0.62,WUHU216HW,2013-06-20 15:42:00,
2013-06-20 09:47:00,42.1,-10.6,29.61,SW,225,1.8,2.2,1,0.05,,,0.63,WUHU216HW,2013-06-20 15:47:00,
2013-06-20 09:52:00,42.1,-10.6,29.61,NE,45,0.0,1.8,1,0.04,,,0.63,WUHU216HW,2013-06-20 15:52:00,
2013-06-20 09:57:00,42.3,-10.4,29.61,NE,45,0.7,1.8,1,0.05,,,0.64,WUHU216HW,2013-06-20 15:57:00,
2013-06-20 10:02:00,42.3,-10.4,29.61,North,0,1.3,1.8,1,0.05,,,0.64,WUHU216HW,2013-06-20 16:02:00,
2013-06-20 10:07:00,42.1,-10.6,29.61,NE,45,1.1,2.0,1,0.05,,,0.65,WUHU216HW,2013-06-20 16:07:00,
2013-06-20 10:12:00,42.3,-10.4,29.61,SW,225,0.2,2.0,1,0.05,,,0.65,WUHU216HW,2013-06-20 16:12:00,
2013-06-20 10:17:00,42.5,-10.3,29.62,NNE,23,0.2,2.0,1,0.05,,,0.66,WUHU216HW,2013-06-20 16:17:00,
2013-06-20 10:22:00,42.5,-10.3,29.62,SSW,203,0.7,1.6,1,0.06,,,0.66,WUHU216HW,2013-06-20 16:22:00,
2013-06-20 10:27:00,42.7,-10.2,29.62,NE,45,0.4,1.1,1,0.06,,,0.67,WUHU216HW,2013-06-20 16:27:00,
2013-06-20 10:32:00,42.8,-10.1,29.62,NE,45,0.4,1.3,1,0.06,,,0.67,WUHU216HW,2013-06-20 16:32:00,
2013-06-20 10:37:00,42.8,-10.1,29.63,ENE,68,0.9,2.2,1,0.06,,,0.68,WUHU216HW,2013-06-20 16:37:00,
2013-06-20 10:42:00,42.8,-10.1,29.63,NNW,338,0.0,2.2,1,0.07,,,0.69,WUHU216HW,2013-06-20 16:42:00,
2013-06-20 10:47:00,42.8,-10.1,29.63,ENE,68,1.1,3.1,2,0.07,,,0.69,WUHU216HW,2013-06-20 16:47:00,
2013-06-20 10:52:00,42.8,-10.1,29.64,NNE,23,0.0,3.1,1,0.06,,,0.70,WUHU216HW,2013-06-20 16:52:00,
2013-06-20 10:57:00,43.0,-9.9,29.63,NW,315,0.0,1.6,1,0.07,,,0.71,WUHU216HW,2013-06-20 16:57:00,
2013-06-20 11:02:00,42.8,-10.1,29.64,WSW,248,4.0,4.0,9,0.06,,,0.71,WUHU216HW,2013-06-20 17:02:00,
2013-06-20 11:07:00,42.8,-10.1,29.64,NNE,23,0.2,4.0,3,0.07,,,0.72,WUHU216HW,2013-06-20 17:07:00,
2013-06-20 11:12:00,42.8,-10.1,29.64,South,180,1.8,2.2,2,0.06,,,0.72,WUHU216HW,2013-06-20 17:12:00,
2013-06-20 11:17:00,42.8,-10.1,29.64,SW,225,1.8,2.0,1,0.07,,,0.73,WUHU216HW,2013-06-20 17:17:00,
2013-06-20 11:22:00,42.8,-10.1,29.64,WSW,248,1.1,2.2,2,0.07,,,0.73,WUHU216HW,2013-06-20 17:22:00,
2013-06-20 11:27:00,42.8,-10.1,29.65,SW,225,1.8,2.7,2,0.07,,,0.74,WUHU216HW,2013-06-20 17:27:00,
2013-06-20 11:32:00,42.8,-10.1,29.65,East,90,0.7,2.7,3,0.06,,,0.74,WUHU216HW,2013-06-20 17:32:00,
2013-06-20 11:37:00,43.0,-9.9,29.65,SSE,158,1.8,2.2,1,0.06,,,0.75,WUHU216HW,2013-06-20 17:37:00,
2013-06-20 11:42:00,43.0,-9.9,29.66,East,90,0.0,3.6,5,0.06,,,0.75,WUHU216HW,2013-06-20 17:42:00,
2013-06-20 11:47:00,43.2,-9.8,29.66,SE,135,0.9,3.6,5,0.06,,,0.75,WUHU216HW,2013-06-20 17:47:00,
2013-06-20 11:52:00,43.4,-9.6,29.66,SW,225,0.4,1.1,2,0.05,,,0.76,WUHU216HW,2013-06-20 17:52:00,
2013-06-20 11:57:00,43.6,-9.5,29.66,ESE,113,0.7,1.1,1,0.05,,,0.76,WUHU216HW,2013-06-20 17:57:00,
2013-06-20 12:02:00,43.6,-9.5,29.66,NE,45,1.6,2.0,5,0.05,,,0.77,WUHU216HW,2013-06-20 18:02:00,
2013-06-20 12:07:00,43.6,-9.5,29.66,ESE,113,1.1,2.0,5,0.05,,,0.77,WUHU216HW,2013-06-20 18:07:00,
2013-06-20 12:12:00,43.7,-9.4,29.66,North,0,1.1,2.5,5,0.05,,,0.78,WUHU216HW,2013-06-20 18:12:00,
2013-06-20 12:17:00,43.9,-9.2,29.67,NNE,23,1.3,4.0,5,0.05,,,0.78,WUHU216HW,2013-06-20 18:17:00,
2013-06-20 12:22:00,43.9,-9.2,29.67,South,180,0.0,4.0,2,0.04,,,0.78,WUHU216HW,2013-06-20 18:22:00,
2013-06-20 12:27:00,43.9,-9.2,29.68,SSW,203,0.9,2.7,4,0.05,,,0.79,WUHU216HW,2013-06-20 18:27:00,
2013-06-20 12:32:00,44.1,-9.1,29.68,ESE,113,2.5,2.5,7,0.04,,,0.79,WUHU216HW,2013-06-20 18:32:00,
2013-06-20 12:37:00,44.1,-9.1,29.69,NNE,23,2.2,3.1,2,0.04,,,0.79,WUHU216HW,2013-06-20 18:37:00,
2013-06-20 12:42:00,43.9,-9.2,29.69,East,90,3.6,3.6,6,0.04,,,0.79,WUHU216HW,2013-06-20 18:42:00,
2013-06-20 12:47:00,43.7,-0.5,29.69,SE,135,0.4,5.4,16,0.04,,,0.80,WUHU216HW,2013-06-20 18:47:00,
2013-06-20 12:52:00,43.7,-9.4,29.69,ESE,113,0.2,5.4,10,0.04,,,0.80,WUHU216HW,2013-06-20 18:52:00,
2013-06-20 12:57:00,43.9,-9.2,29.69,SW,225,3.1,3.8,5,0.04,,,0.81,WUHU216HW,2013-06-20 18:57:00,
2013-06-20 13:02:00,43.7,-9.4,29.69,South,180,0.0,3.1,8,0.04,,,0.81,WUHU216HW,2013-06-20 19:02:00,
2013-06-20 13:07:00,43.9,-9.2,29.69,ENE,68,1.1,2.5,9,0.04,,,0.81,WUHU216HW,2013-06-20 19:07:00,
2013-06-20 13:12:00,44.1,-9.1,29.70,NE,45,1.3,1.3,7,0.04,,,0.82,WUHU216HW,2013-06-20 19:12:00,
2013-06-20 13:17:00,44.1,-9.1,29.70,NNE,23,2.0,3.4,7,0.04,,,0.82,WUHU216HW,2013-06-20 19:17:00,
2013-06-20 13:22:00,44.3,-8.9,29.70,NNE,23,0.7,3.4,5,0.05,,,0.83,WUHU216HW,2013-06-20 19:22:00,
2013-06-20 13:27:00,44.5,-8.8,29.70,NE,45,0.9,2.5,5,0.04,,,0.83,WUHU216HW,2013-06-20 19:27:00,
2013-06-20 13:32:00,44.6,-8.6,29.71,North,0,3.4,3.4,3,0.05,,,0.84,WUHU216HW,2013-06-20 19:32:00,
2013-06-20 13:37:00,44.3,-8.9,29.71,NNE,23,1.1,3.4,9,0.05,,,0.84,WUHU216HW,2013-06-20 19:37:00,
2013-06-20 13:42:00,44.8,-8.4,29.71,North,0,1.3,2.0,7,0.04,,,0.84,WUHU216HW,2013-06-20 19:42:00,
2013-06-20 13:47:00,45.0,-8.4,29.71,NE,45,0.0,2.0,2,0.04,,,0.84,WUHU216HW,2013-06-20 19:47:00,
2013-06-20 13:52:00,45.2,-8.2,29.71,NNE,23,1.8,3.6,5,0.04,,,0.85,WUHU216HW,2013-06-20 19:52:00,
2013-06-20 13:57:00,45.0,-28.8,29.72,ESE,113,1.6,3.6,3,0.04,,,0.85,WUHU216HW,2013-06-20 19:57:00,
2013-06-20 14:02:00,45.2,-8.2,29.72,NE,45,0.7,3.6,9,0.04,,,0.85,WUHU216HW,2013-06-20 20:02:00,
2013-06-20 14:07:00,45.7,-7.7,29.72,ESE,113,0.7,2.2,7,0.04,,,0.85,WUHU216HW,2013-06-20 20:07:00,
2013-06-20 14:12:00,46.1,-7.5,29.72,ENE,68,1.1,4.0,7,0.03,,,0.85,WUHU216HW,2013-06-20 20:12:00,
2013-06-20 14:17:00,45.7,7.9,29.72,SSW,203,0.4,4.0,21,0.03,,,0.86,WUHU216HW,2013-06-20 20:17:00,
2013-06-20 14:22:00,45.9,-0.3,29.72,NNE,23,0.4,2.7,15,0.03,,,0.86,WUHU216HW,2013-06-20 20:22:00,
2013-06-20 14:27:00,45.9,10.0,29.73,North,0,1.1,2.7,23,0.03,,,0.86,WUHU216HW,2013-06-20 20:27:00,
2013-06-20 14:32:00,46.3,-7.4,29.73,NE,45,2.7,2.7,10,0.02,,,0.86,WUHU216HW,2013-06-20 20:32:00,
2013-06-20 14:37:00,46.3,-4.4,29.73,ENE,68,0.9,5.4,12,0.02,,,0.86,WUHU216HW,2013-06-20 20:37:00,
2013-06-20 14:42:00,46.4,-7.2,29.73,SSE,158,1.8,5.4,10,0.02,,,0.86,WUHU216HW,2013-06-20 20:42:00,
2013-06-20 14:47:00,46.3,-1.4,29.74,ENE,68,0.2,2.0,14,0.02,,,0.86,WUHU216HW,2013-06-20 20:47:00,
2013-06-20 14:52:00,46.6,-7.0,29.74,South,180,2.2,2.2,7,0.02,,,0.87,WUHU216HW,2013-06-20 20:52:00,
2013-06-20 14:57:00,46.4,4.6,29.74,SE,135,0.2,3.4,18,0.02,,,0.87,WUHU216HW,2013-06-20 20:57:00,
2013-06-20 15:02:00,46.4,-4.2,29.74,ESE,113,0.4,3.4,12,0.02,,,0.87,WUHU216HW,2013-06-20 21:02:00,
2013-06-20 15:07:00,46.6,-5.6,29.74,NNE,23,1.3,3.4,11,0.02,,,0.87,WUHU216HW,2013-06-20 21:07:00,
2013-06-20 15:12:00,46.4,3.2,29.74,ENE,68,0.4,3.4,17,0.02,,,0.87,WUHU216HW,2013-06-20 21:12:00,
2013-06-20 15:17:00,46.3,8.4,29.74,SW,225,0.7,4.0,21,0.02,,,0.88,WUHU216HW,2013-06-20 21:17:00,
2013-06-20 15:22:00,46.1,8.2,29.74,NNE,23,2.2,4.9,21,0.02,,,0.88,WUHU216HW,2013-06-20 21:22:00,
2013-06-20 15:27:00,46.6,-9.5,29.75,South,180,1.1,4.9,9,0.02,,,0.88,WUHU216HW,2013-06-20 21:27:00,
2013-06-20 15:32:00,47.0,-0.9,29.75,NNE,23,0.9,4.3,14,0.02,,,0.88,WUHU216HW,2013-06-20 21:32:00,
2013-06-20 15:38:00,46.6,11.3,29.75,NNE,23,1.8,4.7,24,0.03,,,0.89,WUHU216HW,2013-06-20 21:38:00,
2013-06-20 15:43:00,46.8,15.2,29.75,NNE,23,0.7,4.7,28,0.03,,,0.89,WUHU216HW,2013-06-20 21:43:00,
2013-06-20 15:48:00,47.2,5.2,29.76,SE,135,0.2,2.0,18,0.03,,,0.89,WUHU216HW,2013-06-20 21:48:00,
2013-06-20 15:53:00,47.7,-3.2,29.75,NE,45,1.1,2.0,12,0.02,,,0.89,WUHU216HW,2013-06-20 21:53:00,
2013-06-20 15:58:00,47.3,19.4,29.76,SSW,203,0.7,2.5,33,0.02,,,0.89,WUHU216HW,2013-06-20 21:58:00,
2013-06-20 16:03:00,47.2,11.9,29.76,East,90,0.0,2.5,24,0.02,,,0.89,WUHU216HW,2013-06-20 22:03:00,
2013-06-20 16:08:00,47.5,9.4,29.76,NE,45,1.1,1.1,21,0.02,,,0.89,WUHU216HW,2013-06-20 22:08:00,
2013-06-20 16:13:00,47.5,9.4,29.77,ESE,113,1.1,1.8,21,0.01,,,0.89,WUHU216HW,2013-06-20 22:13:00,
2013-06-20 16:18:00,47.2,14.6,29.77,NE,45,3.6,3.6,27,0.01,,,0.89,WUHU216HW,2013-06-20 22:18:00,
2013-06-20 16:23:00,47.0,3.6,29.77,NNW,338,0.9,3.6,17,0.01,,,0.89,WUHU216HW,2013-06-20 22:23:00,
2013-06-20 16:28:00,46.6,-1.2,29.77,NNE,23,0.9,2.9,14,0.01,,,0.89,WUHU216HW,2013-06-20 22:28:00,
2013-06-20 16:33:00,46.8,0.5,29.77,NNE,23,2.7,2.7,15,0.00,,,0.89,WUHU216HW,2013-06-20 22:33:00,
2013-06-20 16:38:00,46.8,0.5,29.77,North,0,1.3,3.8,15,0.00,,,0.89,WUHU216HW,2013-06-20 22:38:00,
2013-06-20 16:43:00,47.0,-0.9,29.77,NNE,23,0.0,3.8,14,0.00,,,0.89,WUHU216HW,2013-06-20 22:43:00,
2013-06-20 16:48:00,47.0,-0.9,29.77,NNE,23,0.9,1.8,14,0.00,,,0.89,WUHU216HW,2013-06-20 22:48:00,
2013-06-20 16:53:00,47.2,-0.7,29.77,ESE,113,0.9,3.6,14,0.00,,,0.89,WUHU216HW,2013-06-20 22:53:00,
2013-06-20 16:58:00,47.3,6.9,29.78,SW,225,1.1,3.6,19,0.00,,,0.89,WUHU216HW,2013-06-20 22:58:00,
2013-06-20 17:03:00,47.0,24.9,29.78,ENE,68,1.1,3.8,42,0.00,,,0.89,WUHU216HW,2013-06-20 23:03:00,
2013-06-20 17:08:00,47.0,18.5,29.78,NW,315,0.4,3.8,32,0.00,,,0.89,WUHU216HW,2013-06-20 23:08:00,
2013-06-20 17:13:00,47.2,14.6,29.78,NE,45,0.0,3.1,27,0.00,,,0.89,WUHU216HW,2013-06-20 23:13:00,
2013-06-20 17:18:00,47.2,15.6,29.78,NE,45,0.4,3.1,28,0.00,,,0.89,WUHU216HW,2013-06-20 23:18:00,
2013-06-20 17:23:00,47.3,11.1,29.78,NE,45,0.0,3.1,23,0.00,,,0.89,WUHU216HW,2013-06-20 23:23:00,
2013-06-20 17:28:00,47.2,16.5,29.78,NE,45,0.9,1.8,29,0.00,,,0.89,WUHU216HW,2013-06-20 23:28:00,
2013-06-20 17:33:00,47.2,17.4,29.79,NNE,23,0.2,1.1,30,0.00,,,0.89,WUHU216HW,2013-06-20 23:33:00,
2013-06-20 17:38:00,47.2,11.9,29.79,SSW,203,0.0,1.1,24,0.00,,,0.89,WUHU216HW,2013-06-20 23:38:00,
2013-06-20 17:43:00,47.2,20.7,29.79,West,270,0.4,1.1,35,0.00,,,0.89,WUHU216HW,2013-06-20 23:43:00,
2013-06-20 17:48:00,47.2,15.6,29.79,NE,45,0.0,1.1,28,0.00,,,0.89,WUHU216HW,2013-06-20 23:48:00,
2013-06-20 17:53:00,47.7,12.3,29.79,NE,45,0.0,0.4,24,0.00,,,0.89,WUHU216HW,2013-06-20 23:53:00,
2013-06-20 17:58:00,47.5,15.0,29.79,NNE,23,0.2,1.6,27,0.00,,,0.89,WUHU216HW,2013-06-20 23:58:00,
2013-06-20 18:03:00,47.9,10.6,29.79,NNE,23,1.8,1.8,22,0.00,,,0.89,WUHU216HW,2013-06-21 00:03:00,
2013-06-20 18:08:00,47.7,11.3,29.79,North,0,0.0,1.8,23,0.00,,,0.89,WUHU216HW,2013-06-21 00:08:00,
2013-06-20 18:13:00,47.3,11.1,29.79,North,0,0.0,1.8,23,0.00,,,0.89,WUHU216HW,2013-06-21 00:13:00,
2013-06-20 18:18:00,47.2,13.7,29.79,NNE,23,1.1,1.8,26,0.01,,,0.90,WUHU216HW,2013-06-21 00:18:00,
2013-06-20 18:23:00,47.5,10.3,29.79,NE,45,1.8,1.8,22,0.01,,,0.90,WUHU216HW,2013-06-21 00:23:00,
2013-06-20 18:28:00,47.3,12.9,29.79,NNE,23,0.0,1.8,25,0.01,,,0.90,WUHU216HW,2013-06-21 00:28:00,
2013-06-20 18:33:00,47.5,11.3,29.79,North,0,0.0,0.2,23,0.01,,,0.90,WUHU216HW,2013-06-21 00:33:00,
2013-06-20 18:38:00,47.5,18.4,29.79,NW,315,1.6,1.6,31,0.01,,,0.90,WUHU216HW,2013-06-21 00:38:00,
2013-06-20 18:43:00,47.0,25.5,29.79,NNW,338,0.0,1.6,43,0.01,,,0.90,WUHU216HW,2013-06-21 00:43:00,
2013-06-20 18:48:00,47.0,19.9,29.79,WSW,248,0.0,1.6,34,0.01,,,0.90,WUHU216HW,2013-06-21 00:48:00,
2013-06-20 18:53:00,47.2,18.1,29.80,North,0,0.4,1.3,31,0.01,,,0.90,WUHU216HW,2013-06-21 00:53:00,
2013-06-20 18:58:00,47.2,17.4,29.80,NE,45,0.0,1.3,30,0.01,,,0.90,WUHU216HW,2013-06-21 00:58:00,
2013-06-20 19:03:00,47.3,14.8,29.80,North,0,0.4,1.3,27,0.01,,,0.90,WUHU216HW,2013-06-21 01:03:00,
2013-06-20 19:08:00,47.2,10.9,29.80,North,0,1.8,1.8,23,0.01,,,0.90,WUHU216HW,2013-06-21 01:08:00,
2013-06-20 19:13:00,47.0,10.8,29.80,South,180,1.1,1.8,23,0.00,,,0.90,WUHU216HW,2013-06-21 01:13:00,
2013-06-20 19:18:00,47.2,10.0,29.80,NNW,338,0.0,1.1,22,0.00,,,0.90,WUHU216HW,2013-06-21 01:18:00,
2013-06-20 19:23:00,47.2,10.0,29.80,North,0,0.0,1.6,22,0.00,,,0.90,WUHU216HW,2013-06-21 01:23:00,
2013-06-20 19:28:00,47.2,11.9,29.81,North,0,1.8,1.8,24,0.00,,,0.90,WUHU216HW,2013-06-21 01:28:00,
2013-06-20 19:33:00,47.0,10.8,29.81,NE,45,2.5,2.7,23,0.00,,,0.90,WUHU216HW,2013-06-21 01:33:00,
2013-06-20 19:38:00,47.0,12.6,29.81,ENE,68,0.0,3.6,25,0.00,,,0.90,WUHU216HW,2013-06-21 01:38:00,
2013-06-20 19:43:00,46.6,14.1,29.81,North,0,0.0,3.6,27,0.00,,,0.90,WUHU216HW,2013-06-21 01:43:00,
2013-06-20 19:48:00,46.4,9.4,29.81,North,0,0.4,2.9,22,0.00,,,0.90,WUHU216HW,2013-06-21 01:48:00,
2013-06-20 19:53:00,46.1,10.9,29.81,NNW,338,0.0,2.9,24,0.00,,,0.90,WUHU216HW,2013-06-21 01:53:00,
2013-06-20 19:58:00,45.9,7.1,29.82,North,0,1.1,2.0,20,0.00,,,0.90,WUHU216HW,2013-06-21 01:58:00,
2013-06-20 20:03:00,45.5,-0.5,29.82,North,0,0.0,1.1,15,0.00,,,0.90,WUHU216HW,2013-06-21 02:03:00,
2013-06-20 20:08:00,45.4,3.8,29.82,North,0,0.0,1.6,18,0.00,,,0.90,WUHU216HW,2013-06-21 02:08:00,
2013-06-20 20:13:00,45.4,3.8,29.82,North,0,0.0,2.0,18,0.00,,,0.90,WUHU216HW,2013-06-21 02:13:00,
2013-06-20 20:18:00,45.4,-0.7,29.82,North,0,0.2,2.0,15,0.00,,,0.90,WUHU216HW,2013-06-21 02:18:00,
2013-06-20 20:23:00,45.4,-5.1,29.82,North,0,0.0,0.7,12,0.00,,,0.90,WUHU216HW,2013-06-21 02:23:00,
2013-06-20 20:28:00,45.4,-2.2,29.82,SE,135,0.4,1.6,14,0.00,,,0.90,WUHU216HW,2013-06-21 02:28:00,
2013-06-20 20:33:00,45.5,-3.5,29.82,North,0,1.3,1.8,13,0.00,,,0.90,WUHU216HW,2013-06-21 02:33:00,
2013-06-20 20:38:00,45.4,-2.2,29.82,North,0,3.4,3.4,14,0.00,,,0.90,WUHU216HW,2013-06-21 02:38:00,
2013-06-20 20:43:00,45.0,-1.0,29.82,NNE,23,0.0,3.4,15,0.00,,,0.90,WUHU216HW,2013-06-21 02:43:00,
2013-06-20 20:48:00,44.8,0.4,29.83,North,0,0.4,2.9,16,0.00,,,0.90,WUHU216HW,2013-06-21 02:48:00,
2013-06-20 20:53:00,44.5,-2.9,29.82,North,0,0.0,0.9,14,0.00,,,0.90,WUHU216HW,2013-06-21 02:53:00,
2013-06-20 20:58:00,44.5,-8.8,29.82,North,0,1.8,1.8,9,0.00,,,0.90,WUHU216HW,2013-06-21 02:58:00,
2013-06-20 21:03:00,44.3,-5.9,29.83,North,0,0.0,1.8,12,0.00,,,0.90,WUHU216HW,2013-06-21 03:03:00,
2013-06-20 21:08:00,44.1,-6.1,29.83,North,0,0.0,0.4,12,0.00,,,0.90,WUHU216HW,2013-06-21 03:08:00,
2013-06-20 21:13:00,43.9,-7.7,29.83,North,0,0.0,0.4,11,0.00,,,0.90,WUHU216HW,2013-06-21 03:13:00,
2013-06-20 21:18:00,43.7,-6.4,29.83,North,0,0.0,0.2,12,0.00,,,0.90,WUHU216HW,2013-06-21 03:18:00,
2013-06-20 21:23:00,43.6,-8.0,29.83,North,0,0.0,0.0,11,0.00,,,0.90,WUHU216HW,2013-06-21 03:23:00,
2013-06-20 21:28:00,43.6,-6.6,29.83,North,0,0.0,0.4,12,0.00,,,0.90,WUHU216HW,2013-06-21 03:28:00,
2013-06-20 21:33:00,43.4,-6.7,29.83,North,0,0.4,0.4,12,0.00,,,0.90,WUHU216HW,2013-06-21 03:33:00,
2013-06-20 21:38:00,43.0,-7.0,29.83,North,0,0.0,0.4,12,0.00,,,0.90,WUHU216HW,2013-06-21 03:38:00,
2013-06-20 21:43:00,42.8,-7.2,29.84,North,0,0.0,0.0,12,0.00,,,0.90,WUHU216HW,2013-06-21 03:43:00,
2013-06-20 21:48:00,42.7,-4.4,29.84,North,0,0.0,0.0,14,0.00,,,0.90,WUHU216HW,2013-06-21 03:48:00,
2013-06-20 21:52:00,42.5,-8.9,29.84,North,0,0.0,0.0,11,0.00,,,0.90,WUHU216HW,2013-06-21 03:52:00,
2013-06-20 21:58:00,42.3,-7.6,29.84,North,0,0.0,0.0,12,0.00,,,0.90,WUHU216HW,2013-06-21 03:58:00,
2013-06-20 22:01:00,42.1,-7.6,29.84,North,0,0.0,0.0,12,0.00,,,0.90,WUHU216HW,2013-06-21 04:01:00,
2013-06-20 22:06:00,42.1,-10.6,29.84,North,0,0.0,0.2,10,0.00,,,0.90,WUHU216HW,2013-06-21 04:06:00,
2013-06-20 22:11:00,42.1,-10.6,29.84,North,0,0.0,0.4,9,0.00,,,0.90,WUHU216HW,2013-06-21 04:11:00,
2013-06-20 22:16:00,41.9,-10.7,29.84,North,0,0.0,0.4,9,0.00,,,0.90,WUHU216HW,2013-06-21 04:16:00,
2013-06-20 22:21:00,41.8,-10.8,29.84,North,0,0.0,0.0,9,0.00,,,0.90,WUHU216HW,2013-06-21 04:21:00,
2013-06-20 22:26:00,41.8,-10.8,29.84,North,0,0.0,0.0,7,0.00,,,0.90,WUHU216HW,2013-06-21 04:26:00,
2013-06-20 22:31:00,41.8,-10.8,29.84,North,0,0.0,0.0,7,0.00,,,0.90,WUHU216HW,2013-06-21 04:31:00,
2013-06-20 22:36:00,41.8,-10.8,29.85,North,0,0.0,0.0,6,0.00,,,0.90,WUHU216HW,2013-06-21 04:36:00,
2013-06-20 22:41:00,41.6,-11.0,29.84,North,0,0.0,0.0,7,0.00,,,0.90,WUHU216HW,2013-06-21 04:41:00,
2013-06-20 22:46:00,41.8,-10.8,29.84,North,0,0.0,0.0,7,0.00,,,0.90,WUHU216HW,2013-06-21 04:46:00,
2013-06-20 22:51:00,41.8,-10.8,29.85,North,0,0.0,0.0,7,0.00,,,0.90,WUHU216HW,2013-06-21 04:51:00,
2013-06-20 22:56:00,41.8,-10.8,29.85,North,0,0.0,0.4,6,0.00,,,0.90,WUHU216HW,2013-06-21 04:56:00,
2013-06-20 23:01:00,41.8,-10.8,29.85,North,0,0.0,0.4,2,0.00,,,0.90,WUHU216HW,2013-06-21 05:01:00,
2013-06-20 23:06:00,41.8,-10.8,29.85,North,0,0.0,0.4,5,0.00,,,0.90,WUHU216HW,2013-06-21 05:06:00,
2013-06-20 23:11:00,41.9,-10.7,29.85,North,0,0.0,0.0,5,0.00,,,0.90,WUHU216HW,2013-06-21 05:11:00,
2013-06-20 23:16:00,41.9,-10.7,29.85,North,0,0.0,0.0,5,0.00,,,0.90,WUHU216HW,2013-06-21 05:16:00,
2013-06-20 23:21:00,41.9,-10.7,29.85,North,0,0.0,0.0,3,0.00,,,0.90,WUHU216HW,2013-06-21 05:21:00,
2013-06-20 23:26:00,42.1,-10.6,29.85,North,0,0.0,0.0,5,0.01,,,0.91,WUHU216HW,2013-06-21 05:26:00,
2013-06-20 23:31:00,42.1,-10.6,29.85,North,0,0.0,0.0,5,0.01,,,0.91,WUHU216HW,2013-06-21 05:31:00,
2013-06-20 23:36:00,42.1,-10.6,29.84,North,0,0.0,0.0,3,0.01,,,0.91,WUHU216HW,2013-06-21 05:36:00,
2013-06-20 23:41:00,42.1,-10.6,29.85,North,0,0.0,0.4,3,0.01,,,0.91,WUHU216HW,2013-06-21 05:41:00,
2013-06-20 23:46:00,42.1,-10.6,29.84,North,0,0.0,0.4,2,0.01,,,0.91,WUHU216HW,2013-06-21 05:46:00,
2013-06-20 23:51:00,42.1,-10.6,29.85,North,0,0.0,0.0,3,0.01,,,0.91,WUHU216HW,2013-06-21 05:51:00,
2013-06-20 23:56:00,42.1,-10.6,29.85,North,0,0.0,0.0,3,0.01,,,0.91,WUHU216HW,2013-06-21 05:56:00,